createdAt,value
2018-06-14T20:56:00.671Z,15
2018-06-14T20:58:00.821Z,17
2018-06-14T20:59:00.676Z,16
2018-06-14T21:00:00.875Z,17
2018-06-14T21:04:00.669Z,19
2018-06-14T21:05:00.719Z,17
2018-06-14T21:06:00.669Z,18
2018-06-14T21:07:00.671Z,17
2018-06-14T21:08:00.669Z,16
2018-06-14T21:10:00.673Z,17
2018-06-14T21:12:00.678Z,18
2018-06-14T21:13:00.673Z,17
2018-06-14T21:14:00.668Z,15
2018-06-14T21:15:00.674Z,14
2018-06-14T21:16:00.666Z,15
2018-06-14T21:17:00.667Z,16
2018-06-14T21:18:00.671Z,17
2018-06-14T21:19:00.666Z,19
2018-06-14T21:21:00.668Z,18
2018-06-14T21:22:00.667Z,19
2018-06-14T21:23:00.668Z,18
2018-06-14T21:24:00.667Z,17
2018-06-14T21:26:00.667Z,15
2018-06-14T21:27:00.672Z,13
2018-06-14T21:30:00.733Z,14
2018-06-14T21:31:00.676Z,15
2018-06-14T21:32:00.671Z,14
2018-06-14T21:34:00.667Z,13
2018-06-14T21:35:00.667Z,14
2018-06-14T21:36:00.666Z,15
2018-06-14T21:37:00.666Z,16
2018-06-14T21:38:00.668Z,17
2018-06-14T21:39:00.668Z,18
2018-06-14T21:41:00.675Z,16
2018-06-14T21:42:00.695Z,15
2018-06-14T21:43:00.672Z,16
2018-06-14T21:45:00.674Z,17
2018-06-14T21:46:00.679Z,18
2018-06-14T21:47:00.676Z,19
2018-06-14T21:48:05.673Z,18
2018-06-14T21:50:00.672Z,17
2018-06-14T21:56:00.673Z,18
2018-06-14T21:57:00.695Z,16
2018-06-14T21:59:00.670Z,17
2018-06-14T22:00:00.673Z,17
2018-06-14T22:01:00.670Z,16
2018-06-14T22:02:00.697Z,17
2018-06-14T22:03:00.670Z,18
2018-06-14T22:05:00.669Z,17
2018-06-14T22:07:00.703Z,16
2018-06-14T22:08:00.670Z,17
2018-06-14T22:09:00.673Z,16
2018-06-14T22:12:00.704Z,17
2018-06-14T22:13:00.672Z,16
2018-06-14T22:15:00.669Z,16
2018-06-14T22:16:00.668Z,17
2018-06-14T22:17:00.707Z,16
2018-06-14T22:18:00.676Z,17
2018-06-14T22:19:00.684Z,18
2018-06-14T22:20:00.669Z,16
2018-06-14T22:22:00.699Z,17
2018-06-14T22:23:00.720Z,16
2018-06-14T22:24:00.671Z,15
2018-06-14T22:25:00.671Z,16
2018-06-14T22:26:00.669Z,15
2018-06-14T22:29:00.734Z,17
2018-06-14T22:30:00.671Z,18
2018-06-14T22:32:00.696Z,19
2018-06-14T22:33:00.671Z,20
2018-06-14T22:34:00.679Z,18
2018-06-14T22:35:00.672Z,17
2018-06-14T22:36:00.671Z,16
2018-06-14T22:37:00.698Z,15
2018-06-14T22:38:00.676Z,14
2018-06-14T22:40:00.671Z,15
2018-06-14T22:43:00.700Z,16
2018-06-14T22:44:01.796Z,17
2018-06-14T22:45:00.672Z,17
2018-06-14T22:46:00.676Z,18
2018-06-14T22:47:00.675Z,20
2018-06-14T22:48:00.672Z,19
2018-06-14T22:50:00.678Z,16
2018-06-14T22:51:00.675Z,15
2018-06-14T22:52:00.675Z,14
2018-06-14T22:53:00.677Z,15
2018-06-14T22:54:00.676Z,16
2018-06-14T22:55:00.676Z,15
2018-06-14T22:56:00.679Z,17
2018-06-14T22:57:00.676Z,16
2018-06-14T22:58:05.679Z,15
2018-06-14T23:00:00.676Z,18
2018-06-14T23:02:00.699Z,19
2018-06-14T23:03:00.673Z,23
2018-06-14T23:05:00.680Z,22
2018-06-14T23:07:00.699Z,23
2018-06-14T23:08:01.697Z,19
2018-06-14T23:09:00.673Z,16
2018-06-14T23:11:00.673Z,14
2018-06-14T23:12:00.703Z,13
2018-06-14T23:14:00.674Z,15
2018-06-14T23:15:00.675Z,16
2018-06-14T23:16:00.677Z,15
2018-06-14T23:17:00.698Z,16
2018-06-14T23:18:00.675Z,18
2018-06-14T23:19:05.681Z,17
2018-06-14T23:21:00.674Z,18
2018-06-14T23:24:00.704Z,17
2018-06-14T23:29:00.764Z,19
2018-06-14T23:30:00.669Z,19
2018-06-14T23:31:00.671Z,20
2018-06-14T23:32:00.670Z,21
2018-06-14T23:33:00.669Z,19
2018-06-14T23:34:05.676Z,18
2018-06-14T23:35:00.673Z,17
2018-06-14T23:36:00.671Z,16
2018-06-14T23:37:00.677Z,14
2018-06-14T23:38:05.676Z,16
2018-06-14T23:39:00.698Z,15
2018-06-14T23:40:00.671Z,16
2018-06-14T23:41:00.704Z,17
2018-06-14T23:43:00.670Z,15
2018-06-14T23:44:00.671Z,16
2018-06-14T23:45:00.670Z,17
2018-06-14T23:48:01.721Z,18
2018-06-14T23:49:00.676Z,17
2018-06-14T23:50:01.701Z,14
2018-06-14T23:51:00.701Z,15
2018-06-14T23:52:00.672Z,16
2018-06-14T23:53:00.673Z,15
2018-06-14T23:54:00.678Z,16
2018-06-14T23:55:00.672Z,19
2018-06-14T23:56:00.712Z,18
2018-06-14T23:59:00.799Z,20
